Terminal Aerodrome Forecast
Issued by NWS Binghamton, NY

Home | Current Version | Previous Version | Text Only | Print | Product List | Glossary On
Versions: 1 2 3 4 5 6 7 8 9 10 11 12 13 14 15 16 17
000
FTUS41 KBGM 272015 AAA
TAFSYR
TAF AMD
KSYR 272015Z 2720/2818 26010KT P6SM BKN060
      TEMPO 2720/2721 5SM TSRA OVC040CB
     FM280200 24005KT P6SM FEW080
     FM281400 28008KT P6SM SCT200=

USA.gov is the U.S. government's official web portal to all federal, state and local government web resources and services.